Virtual LH

Virtual LH. There's no better way to fly
Since 2013.



AIRPORT MAP

METAR AND TAF INFORMATION

METAR FOR LFKB
ADDS - METARS form results

(0911 UTC 21 January 2019)
Data provider http://aviationweather.gov/metar/data/
 
METAR text: LFKB 210900Z AUTO VRB03KT 9999 BKN025 OVC031 08/07 Q1013 TEMPO SHRA BKN025 FEW030TCU
Conditions at: LFKB (BASTIA/PORETTA , FR) observed 0900 UTC 21 January 2019
Temperature: 8.0°C (46°F)
Dewpoint: 7.0°C (45°F) [RH = 93%]
Pressure (altimeter): 29.91 inches Hg (1013.0 mb)
Winds: variable direction winds at 3 MPH (3 knots; 1.5 m/s)
Visibility: 6 or more miles (10+ km)
Ceiling: 2500 feet AGL
Clouds: broken clouds at 2500 feet AGL
overcast cloud deck at 3100 feet AGL
Weather: no significant weather observed at this time

METAR text: LFKB 210830Z AUTO 23003KT 9999 OVC024 07/06 Q1012 TEMPO SHRA BKN025 FEW030TCU
Conditions at: LFKB (BASTIA/PORETTA , FR) observed 0830 UTC 21 January 2019
Temperature: 7.0°C (45°F)
Dewpoint: 6.0°C (43°F) [RH = 93%]
Pressure (altimeter): 29.88 inches Hg (1012.0 mb)
Winds: from the SW (230 degrees) at 3 MPH (3 knots; 1.5 m/s)
Visibility: 6 or more miles (10+ km)
Ceiling: 2400 feet AGL
Clouds: overcast cloud deck at 2400 feet AGL
Weather: no significant weather observed at this time

Forecast for: LFKB (BASTIA/PORETTA , FR)
Text: TAF LFKB 210800Z 2109/2209 34008KT 9999 BKN025 TX12/2113Z TN05/2205Z
Forecast period: 0900 UTC 21 January 2019 to 0900 UTC 22 January 2019
Forecast type: FROM: standard forecast or significant change
Winds: from the NNW (340 degrees) at 9 MPH (8 knots; 4.1 m/s)
Visibility: 6 or more miles 10+ km)
Ceiling: 2500 feet AGL
Clouds: broken clouds at 2500 feet AGL
Weather: no significant weather forecast for this period
Text: TEMPO 2109/2206 SHRA BKN025 FEW030TCU
Forecast period: 0900 UTC 21 January 2019 to 0600 UTC 22 January 2019
Forecast type: TEMPORARY: The following changes expected for less than half the time period
Visibility: missing
Ceiling: 2500 feet AGL
Clouds: broken clouds at 2500 feet AGL
few clouds at 3000 feet AGL
Weather: SHRA  (rain showers)

RUNWAY INFORMATION

Runway 16 Runway length 8266 ft Runway width 148 ft
Runway elevation 13 ft Runway displaced threshold 0 ft Runway heading 163
Runway 34 Runway length 8266 ft Runway width 148 ft
Runway elevation 26 ft Runway displaced threshold 0 ft Runway heading 343

AIRPORT FREQUENCIES

Type AFIS Name BASTIA INF Frequency 124.725 MHZ
Type APP Name BASTIA RAD Frequency 123.825 MHZ
Type ARR Name BASTIA APP Frequency 37.85 MHZ
Type ATIS Name BASTIA ATI Frequency 125.925 MHZ
Type GND Name GND Frequency 121.825 MHZ
Type TWR Name BASTIA TWR Frequency 118 MHZ

AIRPORT NEAR NAVIGATION AIDS

Type VOR-DME Name Bastia Frequency 114150 KHZ